Creek Data

    Home     View Charts     View Raw Data     Messages

ID Distance Battery Voltage Battery Current Internal Temp Internal Humidity External Temp Solar Input rssi snr Time Stamp Record
34407 15.5 4.00 0 66 35 62 5.1 -75 8 03/08/2025 11:15 AM 16134
34406 15.5 4.00 5 66 35 63 5.1 -76 7 03/08/2025 11:00 AM 16133
34405 15.6 4.00 0 65 35 62 5.1 -75 7 03/08/2025 10:45 AM 16132
34404 15.6 4.13 5 63 35 63 5.1 -77 7 03/08/2025 10:30 AM 16131
34403 15.6 4.00 0 61 35 61 5.1 -77 7 03/08/2025 10:15 AM 16130
34402 15.6 4.01 5 60 34 61 5.1 -76 8 03/08/2025 10:00 AM 16129
34401 15.6 4.09 5 58 34 59 5.1 -76 7 03/08/2025 09:45 AM 16128
34400 15.6 4.00 5 56 34 59 5.1 -75 8 03/08/2025 09:30 AM 16127
34399 15.6 4.00 0 54 34 57 5.1 -76 8 03/08/2025 09:15 AM 16126
34398 15.6 4.00 0 51 34 56 5.1 -76 8 03/08/2025 09:00 AM 16125
34397 0.0 4.00 5 49 34 54 5.1 -77 8 03/08/2025 08:45 AM 16124
34396 0.0 4.00 0 47 34 52 5.1 -76 9 03/08/2025 08:30 AM 16123
34395 0.0 4.00 5 44 34 51 5.1 -76 8 03/08/2025 08:16 AM 16122
34394 15.4 4.00 5 40 35 47 5.1 -76 8 03/08/2025 08:00 AM 16121
34393 15.4 4.08 0 38 35 43 5.1 -75 8 03/08/2025 07:45 AM 16120
34392 15.4 4.00 0 36 36 40 5 -75 8 03/08/2025 07:30 AM 16119
34391 0.0 4.12 44 34 36 41 4.5 -75 8 03/08/2025 07:15 AM 16118
34390 0.0 4.04 32 32 37 40 4.5 -76 9 03/08/2025 07:00 AM 16117
34389 0.0 4.02 -5 31 37 36 4.5 -75 9 03/08/2025 06:45 AM 16116
34388 15.2 3.97 -9 31 38 33 4.5 -75 9 03/08/2025 06:30 AM 16115
34387 15.2 3.98 -5 31 38 35 1 -76 9 03/08/2025 06:15 AM 16114
34386 15.2 3.98 -5 31 38 34 0.1 -75 8 03/08/2025 06:00 AM 16113
34385 0.0 3.92 -5 31 38 33 0 -76 9 03/08/2025 05:45 AM 16112
34384 15.2 3.93 -5 31 38 35 0.1 -75 8 03/08/2025 05:30 AM 16111
34383 15.3 3.93 -5 31 38 35 0 -74 9 03/08/2025 05:15 AM 16110